Terminal Aerodrome Forecast
Issued by NWS

Home | Current Version | Previous Version | Text Only | Print | Product List | Glossary On
Versions: 1 2 3 4 5 6 7 8 9 10 11 12 13 14 15 16 17 18
209
FTUS43 KDVN 132320
TAFCID
TAF
KCID 132320Z 1400/1424 32020G30KT P6SM OVC015
     FM140200 33015G23KT P6SM BKN015
     FM140600 34012KT P6SM BKN020
     FM141500 30006KT P6SM BKN025=

USA.gov is the U.S. government's official web portal to all federal, state and local government web resources and services.